createdAt,value
2022-08-03T00:02:23.891Z,2.92
2022-08-03T00:07:26.444Z,3.22
2022-08-03T00:12:28.853Z,3.30
2022-08-03T00:17:31.303Z,2.90
2022-08-03T00:22:53.646Z,3.35
2022-08-03T00:27:56.128Z,3.50
2022-08-03T00:32:59.257Z,3.25
2022-08-03T00:38:01.985Z,3.17
2022-08-03T00:43:07.889Z,2.90
2022-08-03T00:48:19.454Z,3.40
2022-08-03T00:53:36.574Z,3.08
2022-08-03T00:58:39.041Z,3.45
2022-08-03T01:03:41.911Z,3.45
2022-08-03T01:08:50.302Z,2.85
2022-08-03T01:14:18.022Z,3.15
2022-08-03T01:19:40.628Z,3.40
2022-08-03T01:24:58.159Z,3.38
2022-08-03T01:30:04.240Z,2.63
2022-08-03T01:35:12.642Z,3.13
2022-08-03T01:40:16.240Z,3.10
2022-08-03T01:45:20.967Z,2.83
2022-08-03T01:50:27.805Z,3.30
2022-08-03T01:55:33.435Z,2.78
2022-08-03T02:00:37.730Z,3.28
2022-08-03T02:05:41.133Z,3.47
2022-08-03T02:10:46.273Z,3.72
2022-08-03T02:15:49.526Z,3.60
2022-08-03T02:20:52.886Z,3.08
2022-08-03T02:26:01.825Z,3.58
2022-08-03T02:31:12.978Z,3.65
2022-08-03T02:36:18.447Z,3.33
2022-08-03T02:41:25.369Z,3.10
2022-08-03T02:46:33.018Z,3.67
2022-08-03T02:51:37.585Z,3.58
2022-08-03T02:56:41.288Z,3.38
2022-08-03T03:01:45.343Z,2.95
2022-08-03T03:06:49.167Z,3.05
2022-08-03T03:11:53.428Z,3.15
2022-08-03T03:16:58.001Z,3.72
2022-08-03T03:22:02.397Z,3.13
2022-08-03T03:27:05.321Z,2.88
2022-08-03T03:32:08.357Z,3.60
2022-08-03T03:37:13.259Z,2.78
2022-08-03T03:42:16.518Z,2.65
2022-08-03T03:47:19.184Z,2.90
2022-08-03T03:52:35.510Z,3.67
2022-08-03T03:57:38.039Z,3.38
2022-08-03T04:02:40.541Z,2.85
2022-08-03T04:08:13.214Z,3.20
2022-08-03T04:13:17.116Z,3.30
2022-08-03T04:18:20.709Z,2.80
2022-08-03T04:23:27.282Z,3.30
2022-08-03T04:28:32.575Z,3.38
2022-08-03T04:33:38.575Z,3.05
2022-08-03T04:38:54.441Z,3.22
2022-08-03T04:44:00.434Z,3.20
2022-08-03T04:49:03.578Z,3.13
2022-08-03T04:54:07.453Z,3.50
2022-08-03T04:59:10.883Z,3.00
2022-08-03T05:04:13.546Z,3.47
2022-08-03T05:09:46.064Z,3.47
2022-08-03T05:14:39.159Z,2.97
2022-08-03T05:19:41.687Z,2.70
2022-08-03T05:24:44.237Z,3.45
2022-08-03T05:29:47.954Z,3.08
2022-08-03T05:34:50.494Z,2.95
2022-08-03T05:39:52.944Z,3.30
2022-08-03T05:44:55.399Z,3.47
2022-08-03T05:49:58.981Z,3.13
2022-08-03T05:55:01.474Z,5.53
2022-08-03T06:00:07.204Z,3.15
2022-08-03T06:05:13.966Z,3.35
2022-08-03T06:10:37.409Z,3.60
2022-08-03T06:15:38.971Z,5.18
2022-08-03T06:20:41.386Z,7.00
2022-08-03T06:25:44.002Z,8.20
2022-08-03T06:30:46.937Z,4.03
2022-08-03T06:35:52.605Z,7.97
2022-08-03T06:40:55.385Z,6.28
2022-08-03T06:45:57.882Z,3.75
2022-08-03T06:51:00.307Z,7.82
2022-08-03T06:56:04.446Z,5.45
2022-08-03T07:01:06.998Z,3.83
2022-08-03T07:06:09.493Z,6.78
2022-08-03T07:11:11.905Z,3.65
2022-08-03T07:16:14.470Z,7.35
2022-08-03T07:21:17.136Z,7.30
2022-08-03T07:26:19.570Z,5.28
2022-08-03T07:31:22.058Z,6.07
2022-08-03T07:36:25.071Z,6.28
2022-08-03T07:41:27.593Z,5.63
2022-08-03T07:46:30.052Z,6.18
2022-08-03T07:51:32.964Z,5.30
2022-08-03T07:56:35.477Z,5.75
2022-08-03T08:01:38.824Z,3.55
2022-08-03T08:06:41.432Z,4.32
2022-08-03T08:11:44.008Z,4.25
2022-08-03T08:16:48.011Z,4.40
2022-08-03T08:21:53.417Z,4.35
2022-08-03T08:27:04.737Z,4.28
2022-08-03T08:32:08.109Z,4.47
2022-08-03T08:37:10.572Z,4.72
2022-08-03T08:42:13.051Z,3.75
2022-08-03T08:47:16.027Z,3.53
2022-08-03T08:52:29.495Z,4.28
2022-08-03T08:57:43.128Z,4.72
2022-08-03T09:02:46.821Z,4.65
2022-08-03T09:07:50.055Z,3.63
2022-08-03T09:12:53.414Z,3.33
2022-08-03T09:17:57.813Z,5.60
2022-08-03T09:23:51.835Z,4.00
2022-08-03T09:28:58.081Z,3.95
2022-08-03T09:34:10.839Z,3.90
2022-08-03T09:39:19.158Z,3.50
2022-08-03T09:44:34.946Z,3.83
2022-08-03T09:49:41.049Z,3.88
2022-08-03T09:54:43.818Z,3.90
2022-08-03T09:59:46.291Z,4.45
2022-08-03T10:04:51.096Z,3.90
2022-08-03T10:10:31.080Z,4.55
2022-08-03T10:16:21.600Z,4.13
2022-08-03T10:20:59.235Z,4.40
2022-08-03T10:26:04.940Z,4.05
2022-08-03T10:31:09.870Z,4.22
2022-08-03T10:36:14.925Z,3.83
2022-08-03T10:41:19.856Z,4.15
2022-08-03T10:46:22.509Z,3.55
2022-08-03T10:51:30.550Z,3.75
2022-08-03T10:56:51.558Z,4.22
2022-08-03T11:01:59.799Z,3.80
2022-08-03T11:07:23.607Z,4.15
2022-08-03T11:12:32.638Z,4.25
2022-08-03T11:17:46.150Z,3.30
2022-08-03T11:23:01.091Z,3.95
2022-08-03T11:28:27.189Z,3.75
2022-08-03T11:33:30.872Z,3.65
2022-08-03T11:38:33.353Z,3.90
2022-08-03T11:43:37.438Z,3.30
2022-08-03T11:48:43.490Z,4.13
2022-08-03T11:53:47.865Z,3.10
2022-08-03T11:59:15.214Z,3.40
2022-08-03T12:04:16.488Z,3.50
2022-08-03T12:09:21.206Z,3.30
2022-08-03T12:14:48.825Z,3.45
2022-08-03T12:19:46.594Z,3.15
2022-08-03T12:24:49.020Z,3.85
2022-08-03T12:29:58.638Z,3.70
2022-08-03T12:35:04.425Z,3.05
2022-08-03T12:40:10.519Z,2.95
2022-08-03T12:45:26.896Z,2.60
2022-08-03T12:50:33.228Z,3.58
2022-08-03T12:55:57.284Z,3.47
2022-08-03T13:01:09.965Z,4.10
2022-08-03T13:06:18.576Z,3.13
2022-08-03T13:11:52.502Z,3.03
2022-08-03T13:16:49.329Z,3.08
2022-08-03T13:22:03.138Z,3.40
2022-08-03T13:27:58.910Z,3.25
2022-08-03T13:32:30.607Z,3.58
2022-08-03T13:37:33.235Z,2.83
2022-08-03T13:42:36.724Z,3.63
2022-08-03T13:47:39.519Z,3.00
2022-08-03T13:52:42.147Z,3.22
2022-08-03T13:58:12.078Z,2.83
2022-08-03T14:03:14.180Z,2.90
2022-08-03T14:08:17.179Z,3.20
2022-08-03T14:13:19.710Z,3.38
2022-08-03T14:18:29.118Z,3.47
2022-08-03T14:23:38.004Z,3.38
2022-08-03T14:28:41.212Z,3.53
2022-08-03T14:33:43.624Z,3.30
2022-08-03T14:38:46.445Z,4.00
2022-08-03T14:44:01.669Z,4.05
2022-08-03T14:50:36.290Z,3.80
2022-08-03T14:54:31.012Z,4.15
2022-08-03T14:59:56.752Z,3.92
2022-08-03T15:04:56.521Z,3.60
2022-08-03T15:09:59.702Z,3.50
2022-08-03T15:15:05.125Z,3.92
2022-08-03T15:20:23.405Z,3.80
2022-08-03T15:26:03.694Z,4.43
2022-08-03T15:30:53.959Z,3.67
2022-08-03T15:35:56.675Z,4.10
2022-08-03T15:40:59.695Z,4.25
2022-08-03T15:46:28.303Z,3.63
2022-08-03T15:51:24.680Z,4.22
2022-08-03T15:56:27.622Z,4.28
2022-08-03T16:01:30.608Z,4.28
2022-08-03T16:06:35.782Z,4.70
2022-08-03T16:11:38.948Z,4.03
2022-08-03T16:16:41.643Z,4.47
2022-08-03T16:21:48.712Z,4.05
2022-08-03T16:26:52.901Z,4.03
2022-08-03T16:31:55.481Z,4.35
2022-08-03T16:36:57.956Z,4.28
2022-08-03T16:42:01.692Z,4.28
2022-08-03T16:47:04.493Z,4.50
2022-08-03T16:52:07.238Z,4.15
2022-08-03T16:57:09.929Z,4.13
2022-08-03T17:02:22.250Z,3.75
2022-08-03T17:07:29.655Z,4.53
2022-08-03T17:12:33.097Z,4.22
2022-08-03T17:17:37.558Z,3.83
2022-08-03T17:22:59.656Z,4.72
2022-08-03T17:28:49.200Z,3.70
2022-08-03T17:33:26.972Z,4.40
2022-08-03T17:38:40.434Z,4.65
2022-08-03T17:44:15.186Z,4.63
2022-08-03T17:49:24.886Z,4.38
2022-08-03T17:55:57.043Z,4.22
2022-08-03T18:02:00.628Z,4.53
2022-08-03T18:06:38.029Z,4.93
2022-08-03T18:12:01.624Z,5.32
2022-08-03T18:22:30.563Z,5.38
2022-08-03T18:27:45.436Z,5.43
2022-08-03T18:33:00.753Z,4.78
2022-08-03T18:38:04.076Z,5.13
2022-08-03T18:43:12.992Z,5.47
2022-08-03T18:48:46.410Z,5.18
2022-08-03T18:54:03.339Z,7.15
2022-08-03T18:59:30.832Z,5.28
2022-08-03T19:04:44.152Z,5.20
2022-08-03T19:09:58.514Z,6.20
2022-08-03T19:15:05.320Z,5.78
2022-08-03T19:20:09.584Z,6.25
2022-08-03T19:25:12.242Z,5.55
2022-08-03T19:30:35.812Z,5.22
2022-08-03T19:35:51.105Z,5.95
2022-08-03T19:41:03.984Z,6.68
2022-08-03T19:46:11.116Z,5.72
2022-08-03T19:51:16.820Z,6.25
2022-08-03T19:56:24.153Z,6.32
2022-08-03T20:01:28.158Z,6.65
2022-08-03T20:06:31.977Z,6.85
2022-08-03T20:11:43.695Z,6.13
2022-08-03T20:16:58.461Z,6.63
2022-08-03T20:22:01.402Z,6.70
2022-08-03T20:27:08.385Z,6.53
2022-08-03T20:32:10.914Z,6.75
2022-08-03T20:37:13.574Z,6.43
2022-08-03T20:47:50.742Z,7.15
2022-08-03T20:52:54.693Z,7.15
2022-08-03T20:57:59.592Z,6.72
2022-08-03T21:03:02.717Z,6.85
2022-08-03T21:08:07.518Z,6.65
2022-08-03T21:13:05.638Z,4.55
2022-08-03T21:13:07.251Z,6.07
2022-08-03T21:13:28.497Z,7.03
2022-08-03T21:18:35.096Z,6.97
2022-08-03T21:23:48.121Z,4.78
2022-08-03T21:28:55.468Z,4.57
2022-08-03T21:34:01.614Z,5.25
2022-08-03T21:39:08.491Z,6.57
2022-08-03T21:44:11.264Z,7.63
2022-08-03T21:50:04.749Z,4.40
2022-08-03T21:54:42.416Z,6.00
2022-08-03T21:59:57.113Z,4.60
2022-08-03T22:04:59.630Z,4.57
2022-08-03T22:10:05.231Z,4.60
2022-08-03T22:15:11.112Z,7.90
2022-08-03T22:20:15.117Z,5.47
2022-08-03T22:25:18.085Z,5.22
2022-08-03T22:30:20.813Z,4.68
2022-08-03T22:35:26.011Z,4.90
2022-08-03T22:40:28.842Z,4.60
2022-08-03T22:46:08.486Z,6.05
2022-08-03T22:50:55.881Z,5.78
2022-08-03T22:55:58.736Z,4.78
2022-08-03T23:01:07.646Z,4.78
2022-08-03T23:06:10.686Z,4.80
2022-08-03T23:11:15.374Z,4.80
2022-08-03T23:16:28.791Z,4.45
2022-08-03T23:21:53.466Z,4.75
2022-08-03T23:26:56.691Z,4.82
2022-08-03T23:32:01.839Z,4.88
2022-08-03T23:37:05.939Z,4.07
2022-08-03T23:42:10.166Z,4.70
2022-08-03T23:47:13.726Z,4.53
2022-08-03T23:52:22.000Z,4.90
2022-08-03T23:57:40.878Z,5.35
